Time;durP1;ratioP1;P1;durP2;ratioP2;P2;SDS_P1;SDS_P2;PMS_P1;PMS_P2;Temp;Humidity;BMP_temperature;BMP_pressure;BME280_temperature;BME280_humidity;BME280_pressure;Samples;Min_cycle;Max_cycle;Signal;HPM_P1;HPM_P2
2023/09/20 00:02:22;;;;;;;;;;;17.00;99.90;;;;;;4997710;28;19928;-42
2023/09/20 00:04:48;;;;;;;;;;;17.00;99.90;;;;;;4997627;28;20008;-41
2023/09/20 00:07:13;;;;;;;;;;;16.90;99.90;;;;;;4997748;28;19928;-42
2023/09/20 00:09:39;;;;;;;;;;;16.90;99.90;;;;;;4997788;28;19921;-43
2023/09/20 00:12:05;;;;;;;;;;;16.90;99.90;;;;;;4997671;28;20322;-42
2023/09/20 00:14:31;;;;;;;;;;;16.90;99.90;;;;;;4997427;28;19968;-41
2023/09/20 00:16:57;;;;;;;;;;;16.90;99.90;;;;;;4997609;28;19969;-42
2023/09/20 00:19:23;;;;;;;;;;;16.90;99.90;;;;;;4997031;28;20283;-41
2023/09/20 00:21:49;;;;;;;;;;;16.90;99.90;;;;;;4997896;28;19922;-41
2023/09/20 00:24:14;;;;;;;;;;;16.90;99.90;;;;;;4997456;28;19928;-42
2023/09/20 00:26:40;;;;;;;;;;;16.90;99.90;;;;;;4979978;28;19921;-42
2023/09/20 00:29:05;;;;;;;;;;;16.90;99.90;;;;;;4997200;28;19922;-42
2023/09/20 00:31:32;;;;;;;;;;;16.90;99.90;;;;;;4997145;28;19925;-42
2023/09/20 00:33:58;;;;;;;;;;;16.90;99.90;;;;;;4963943;28;20016;-42
2023/09/20 00:36:24;;;;;;;;;;;17.00;99.90;;;;;;4997214;28;19929;-42
2023/09/20 00:38:52;;;;;;;;;;;16.90;99.90;;;;;;4995740;28;19922;-42
2023/09/20 00:41:18;;;;;;;;;;;17.00;99.90;;;;;;4997058;28;19921;-43
2023/09/20 00:43:44;;;;;;;;;;;16.90;99.90;;;;;;4996988;28;19929;-42
2023/09/20 00:46:11;;;;;;;;;;;16.90;99.90;;;;;;4996874;28;19921;-41
2023/09/20 00:48:38;;;;;;;;;;;16.90;99.90;;;;;;4996997;28;20026;-42
2023/09/20 00:51:05;;;;;;;;;;;16.90;99.90;;;;;;4996995;28;20012;-42
2023/09/20 00:53:31;;;;;;;;;;;16.90;99.90;;;;;;4979732;28;19925;-42
2023/09/20 00:55:58;;;;;;;;;;;16.90;99.90;;;;;;4996929;28;19947;-41
2023/09/20 00:58:23;;;;;;;;;;;16.90;99.90;;;;;;4996737;28;20027;-42
2023/09/20 01:00:53;;;;;;;;;;;16.90;99.90;;;;;;4996624;28;19961;-42
2023/09/20 01:03:19;;;;;;;;;;;17.00;99.90;;;;;;4996500;28;19932;-42
2023/09/20 01:05:47;;;;;;;;;;;17.00;99.90;;;;;;4996654;28;19921;-42
2023/09/20 01:08:12;;;;;;;;;;;16.90;99.90;;;;;;4979445;28;19976;-42
2023/09/20 01:10:38;;;;;;;;;;;16.90;99.90;;;;;;5011790;28;19925;-42
2023/09/20 01:13:05;;;;;;;;;;;16.90;99.90;;;;;;4996633;28;19951;-42
2023/09/20 01:15:34;;;;;;;;;;;17.00;99.90;;;;;;4996450;28;19944;-42
2023/09/20 01:18:01;;;;;;;;;;;17.00;99.90;;;;;;4996071;28;19951;-42
2023/09/20 01:20:27;;;;;;;;;;;17.00;99.90;;;;;;4996745;28;19921;-42
2023/09/20 01:22:59;;;;;;;;;;;17.00;99.90;;;;;;4996590;28;20016;-42
2023/09/20 01:25:29;;;;;;;;;;;16.90;99.90;;;;;;4996237;28;19965;-43
2023/09/20 01:27:56;;;;;;;;;;;16.90;99.90;;;;;;4996195;28;19922;-43
2023/09/20 01:30:25;;;;;;;;;;;17.00;99.90;;;;;;4996042;28;19922;-41
2023/09/20 01:33:03;;;;;;;;;;;16.90;99.90;;;;;;4996206;28;20348;-42
2023/09/20 01:35:29;;;;;;;;;;;17.00;99.90;;;;;;4996121;28;19925;-42
2023/09/20 01:37:55;;;;;;;;;;;17.00;99.90;;;;;;4996014;28;19975;-42
2023/09/20 01:40:23;;;;;;;;;;;17.00;99.90;;;;;;4995963;28;19921;-42
2023/09/20 01:42:49;;;;;;;;;;;17.00;99.90;;;;;;4978683;28;19973;-42
2023/09/20 01:45:16;;;;;;;;;;;17.00;99.90;;;;;;4978921;28;19932;-42
2023/09/20 01:48:11;;;;;;;;;;;17.00;99.90;;;;;;4995869;28;20012;-42
2023/09/20 01:50:37;;;;;;;;;;;17.00;99.90;;;;;;4976538;28;19944;-41
2023/09/20 01:53:09;;;;;;;;;;;17.00;99.90;;;;;;4995684;28;20321;-41
2023/09/20 01:55:37;;;;;;;;;;;17.00;99.90;;;;;;4995788;28;19922;-42
2023/09/20 01:58:05;;;;;;;;;;;17.00;99.90;;;;;;4978447;28;19922;-42
2023/09/20 02:00:36;;;;;;;;;;;17.00;99.90;;;;;;4995571;28;20325;-42
2023/09/20 02:03:13;;;;;;;;;;;17.00;99.90;;;;;;4995513;28;19928;-42
2023/09/20 02:05:39;;;;;;;;;;;17.00;99.90;;;;;;4995455;28;19976;-42
2023/09/20 02:08:06;;;;;;;;;;;17.00;99.90;;;;;;4995223;28;20358;-41
2023/09/20 02:10:32;;;;;;;;;;;17.00;99.90;;;;;;4978179;28;19921;-41
2023/09/20 02:12:58;;;;;;;;;;;17.00;99.90;;;;;;4995391;28;19928;-42
2023/09/20 02:15:24;;;;;;;;;;;17.00;99.90;;;;;;4995273;28;19926;-42
2023/09/20 02:17:52;;;;;;;;;;;17.00;99.90;;;;;;4989283;28;19957;-41
2023/09/20 02:20:19;;;;;;;;;;;17.00;99.90;;;;;;4994730;28;19968;-42
2023/09/20 02:22:49;;;;;;;;;;;17.00;99.90;;;;;;4977885;28;19926;-41
2023/09/20 02:25:20;;;;;;;;;;;17.10;99.90;;;;;;4995341;28;19928;-42
2023/09/20 02:27:49;;;;;;;;;;;17.10;99.90;;;;;;4995167;28;19977;-43
2023/09/20 02:30:16;;;;;;;;;;;17.10;99.90;;;;;;4995216;28;19975;-42
2023/09/20 02:32:42;;;;;;;;;;;17.10;99.90;;;;;;4995079;28;20337;-43
2023/09/20 02:35:08;;;;;;;;;;;17.10;99.90;;;;;;4994960;28;19968;-43
2023/09/20 02:37:34;;;;;;;;;;;17.10;99.90;;;;;;4994876;28;19921;-42
2023/09/20 02:40:00;;;;;;;;;;;17.10;99.90;;;;;;4995002;28;19921;-42
2023/09/20 02:42:26;;;;;;;;;;;17.10;99.90;;;;;;4994818;28;19934;-42
2023/09/20 02:44:56;;;;;;;;;;;17.10;99.90;;;;;;4994720;28;19922;-41
2023/09/20 02:47:24;;;;;;;;;;;17.10;99.90;;;;;;4994756;28;19926;-42
2023/09/20 02:49:50;;;;;;;;;;;17.10;99.90;;;;;;4994861;28;19926;-43
2023/09/20 02:52:17;;;;;;;;;;;17.20;99.90;;;;;;4977671;28;20454;-42
2023/09/20 02:54:43;;;;;;;;;;;17.20;99.90;;;;;;4994722;28;19926;-42
2023/09/20 02:57:10;;;;;;;;;;;17.20;99.90;;;;;;4994714;28;20361;-43
2023/09/20 02:59:38;;;;;;;;;;;17.20;99.90;;;;;;4977242;28;19929;-41
2023/09/20 03:02:04;;;;;;;;;;;17.20;99.90;;;;;;4993669;28;19932;-42
2023/09/20 03:04:29;;;;;;;;;;;17.20;99.90;;;;;;4994659;28;20008;-42
2023/09/20 03:06:55;;;;;;;;;;;17.20;99.90;;;;;;4995191;28;20363;-42
2023/09/20 03:09:24;;;;;;;;;;;17.20;99.90;;;;;;4994674;28;20286;-43
2023/09/20 03:11:50;;;;;;;;;;;17.20;99.90;;;;;;4994633;28;19926;-42
2023/09/20 03:14:16;;;;;;;;;;;17.20;99.90;;;;;;4994590;28;19998;-42
2023/09/20 03:16:43;;;;;;;;;;;17.20;99.90;;;;;;4994293;28;19973;-42
2023/09/20 03:19:09;;;;;;;;;;;17.20;99.90;;;;;;5006082;28;19942;-42
2023/09/20 03:21:35;;;;;;;;;;;17.20;99.90;;;;;;4975035;28;19994;-42
2023/09/20 03:24:05;;;;;;;;;;;17.20;99.90;;;;;;4975086;28;19922;-42
2023/09/20 03:26:32;;;;;;;;;;;17.20;99.90;;;;;;4975077;28;20389;-43
2023/09/20 03:28:57;;;;;;;;;;;17.20;99.90;;;;;;4974981;28;20272;-42
2023/09/20 03:31:23;;;;;;;;;;;17.20;99.90;;;;;;4974769;28;19933;-43
2023/09/20 03:33:49;;;;;;;;;;;17.20;99.90;;;;;;4975426;28;20383;-42
2023/09/20 03:36:17;;;;;;;;;;;17.20;99.90;;;;;;4974764;28;19922;-42
2023/09/20 03:38:43;;;;;;;;;;;17.20;99.90;;;;;;5006495;28;20302;-42
2023/09/20 03:41:10;;;;;;;;;;;17.20;99.90;;;;;;4974885;28;20299;-43
2023/09/20 03:43:37;;;;;;;;;;;17.30;99.90;;;;;;5006416;28;20049;-42
2023/09/20 03:46:02;;;;;;;;;;;17.30;99.90;;;;;;4974920;28;19926;-44
2023/09/20 03:48:28;;;;;;;;;;;17.30;99.90;;;;;;4974865;28;19922;-42
2023/09/20 03:50:53;;;;;;;;;;;17.30;99.90;;;;;;4974040;28;19922;-42
2023/09/20 03:53:19;;;;;;;;;;;17.30;99.90;;;;;;4974763;28;20067;-42
2023/09/20 03:55:48;;;;;;;;;;;17.30;99.90;;;;;;4973941;28;19926;-42
2023/09/20 03:58:15;;;;;;;;;;;17.30;99.90;;;;;;4974675;28;19921;-43
2023/09/20 04:00:42;;;;;;;;;;;17.30;99.90;;;;;;4973585;28;20359;-42
2023/09/20 04:03:08;;;;;;;;;;;17.30;99.90;;;;;;4974694;28;20383;-43
2023/09/20 04:05:35;;;;;;;;;;;17.30;99.90;;;;;;4974741;28;20388;-41
2023/09/20 04:08:02;;;;;;;;;;;17.30;99.90;;;;;;4974601;28;19922;-42
2023/09/20 04:10:27;;;;;;;;;;;17.30;99.90;;;;;;4974526;28;19945;-42
2023/09/20 04:12:53;;;;;;;;;;;17.30;99.90;;;;;;4975218;28;19926;-42
2023/09/20 04:15:19;;;;;;;;;;;17.30;99.90;;;;;;4977948;28;19922;-42
2023/09/20 04:17:48;;;;;;;;;;;17.30;99.90;;;;;;4978118;28;20383;-42
2023/09/20 04:20:13;;;;;;;;;;;17.20;99.90;;;;;;4996944;28;19925;-43
2023/09/20 04:22:40;;;;;;;;;;;17.30;99.90;;;;;;4997367;28;19929;-42
2023/09/20 04:25:06;;;;;;;;;;;17.30;99.90;;;;;;4997394;28;19922;-42
2023/09/20 04:27:32;;;;;;;;;;;17.20;99.90;;;;;;4997212;28;19929;-42
2023/09/20 04:29:58;;;;;;;;;;;17.20;99.90;;;;;;4997574;28;19928;-42
2023/09/20 04:32:23;;;;;;;;;;;17.20;99.90;;;;;;4980165;28;20263;-42
2023/09/20 04:34:53;;;;;;;;;;;17.20;99.90;;;;;;4997166;28;19968;-42
2023/09/20 04:37:19;;;;;;;;;;;17.20;99.90;;;;;;4980342;28;20008;-44
2023/09/20 04:39:45;;;;;;;;;;;17.20;99.90;;;;;;4997017;28;20357;-42
2023/09/20 04:42:13;;;;;;;;;;;17.20;99.90;;;;;;4997065;28;19953;-43
2023/09/20 04:44:39;;;;;;;;;;;17.20;99.90;;;;;;4996862;28;20371;-43
2023/09/20 04:47:04;;;;;;;;;;;17.20;99.90;;;;;;4997012;28;20028;-42
2023/09/20 04:49:30;;;;;;;;;;;17.20;99.90;;;;;;4979449;28;19969;-43
2023/09/20 04:52:00;;;;;;;;;;;17.10;99.90;;;;;;4996919;28;19922;-42
2023/09/20 04:54:26;;;;;;;;;;;17.10;99.90;;;;;;4996851;28;19921;-43
2023/09/20 04:56:51;;;;;;;;;;;17.10;99.90;;;;;;4996590;28;19922;-42
2023/09/20 04:59:19;;;;;;;;;;;17.00;99.90;;;;;;4996786;28;19921;-43
2023/09/20 05:01:45;;;;;;;;;;;17.00;99.90;;;;;;4996774;28;19926;-42
2023/09/20 05:04:13;;;;;;;;;;;17.00;99.90;;;;;;4997106;28;19922;-42
2023/09/20 05:06:42;;;;;;;;;;;16.90;99.90;;;;;;4996477;28;19945;-43
2023/09/20 05:09:08;;;;;;;;;;;16.90;99.90;;;;;;4996514;28;19928;-42
2023/09/20 05:11:34;;;;;;;;;;;16.90;99.90;;;;;;4996493;28;20013;-42
2023/09/20 05:14:00;;;;;;;;;;;16.90;99.90;;;;;;4996509;28;19969;-42
2023/09/20 05:16:26;;;;;;;;;;;16.80;99.90;;;;;;4996441;28;20015;-41
2023/09/20 05:18:52;;;;;;;;;;;16.80;99.90;;;;;;4992127;28;20008;-42
2023/09/20 05:21:17;;;;;;;;;;;16.80;99.90;;;;;;4996504;28;20264;-42
2023/09/20 05:23:43;;;;;;;;;;;16.70;99.90;;;;;;4996269;28;20287;-43
2023/09/20 05:26:08;;;;;;;;;;;16.70;99.90;;;;;;4995232;28;19929;-43
2023/09/20 05:28:35;;;;;;;;;;;16.70;99.90;;;;;;4996249;28;19921;-43
2023/09/20 05:31:02;;;;;;;;;;;16.70;99.90;;;;;;4996244;28;19921;-42
2023/09/20 05:33:30;;;;;;;;;;;16.70;99.90;;;;;;4996363;28;19968;-42
2023/09/20 05:35:59;;;;;;;;;;;16.70;99.90;;;;;;4996137;28;20263;-42
2023/09/20 05:38:25;;;;;;;;;;;16.70;99.90;;;;;;4995755;28;19922;-42
2023/09/20 05:40:51;;;;;;;;;;;16.70;99.90;;;;;;4996126;28;19929;-44
2023/09/20 05:43:17;;;;;;;;;;;16.70;99.90;;;;;;4978667;28;20307;-43
2023/09/20 05:45:42;;;;;;;;;;;16.70;99.90;;;;;;4995883;28;20379;-42
2023/09/20 05:48:12;;;;;;;;;;;16.70;99.90;;;;;;4996333;28;19928;-43
2023/09/20 05:50:38;;;;;;;;;;;16.70;99.90;;;;;;4995779;28;19928;-42
2023/09/20 05:53:06;;;;;;;;;;;16.70;99.90;;;;;;4995566;28;19926;-42
2023/09/20 05:55:43;;;;;;;;;;;16.70;99.90;;;;;;4995788;28;19926;-42
2023/09/20 05:58:09;;;;;;;;;;;16.70;99.90;;;;;;4995612;28;20345;-42
2023/09/20 06:00:35;;;;;;;;;;;16.70;99.90;;;;;;4995640;28;19992;-40
2023/09/20 06:03:04;;;;;;;;;;;16.70;99.90;;;;;;4995482;28;19922;-42
2023/09/20 06:05:35;;;;;;;;;;;16.70;99.90;;;;;;4995470;28;20029;-43
2023/09/20 06:08:01;;;;;;;;;;;16.70;99.90;;;;;;4995523;28;20362;-41
2023/09/20 06:10:26;;;;;;;;;;;16.80;99.90;;;;;;4995752;28;19928;-42
2023/09/20 06:12:52;;;;;;;;;;;16.80;99.90;;;;;;4995361;28;20342;-42
2023/09/20 06:15:17;;;;;;;;;;;16.80;99.90;;;;;;4995269;28;19921;-42
2023/09/20 06:17:43;;;;;;;;;;;16.80;99.90;;;;;;4995099;28;19925;-42
2023/09/20 06:20:12;;;;;;;;;;;16.80;99.90;;;;;;4995211;28;19937;-43
2023/09/20 06:22:41;;;;;;;;;;;16.80;99.90;;;;;;4995031;28;20287;-43
2023/09/20 06:25:07;;;;;;;;;;;16.80;99.90;;;;;;4995178;28;19921;-42
2023/09/20 06:27:33;;;;;;;;;;;16.80;99.90;;;;;;4995177;28;20260;-43
2023/09/20 06:30:00;;;;;;;;;;;16.80;99.90;;;;;;4995087;28;19928;-42
2023/09/20 06:32:25;;;;;;;;;;;16.80;99.90;;;;;;4995170;28;19921;-42
2023/09/20 06:34:51;;;;;;;;;;;16.90;99.90;;;;;;4994711;28;19929;-42
2023/09/20 06:37:16;;;;;;;;;;;16.90;99.90;;;;;;4995006;28;19926;-42
2023/09/20 06:39:45;;;;;;;;;;;16.90;99.90;;;;;;4995025;28;19969;-42
2023/09/20 06:42:10;;;;;;;;;;;16.80;99.90;;;;;;4994948;28;19928;-43
2023/09/20 06:44:38;;;;;;;;;;;16.80;99.90;;;;;;4994967;28;20016;-42
2023/09/20 06:47:08;;;;;;;;;;;16.80;99.90;;;;;;4977681;28;19932;-42
2023/09/20 06:49:34;;;;;;;;;;;16.80;99.90;;;;;;4994673;28;19925;-43
2023/09/20 06:52:03;;;;;;;;;;;16.80;99.90;;;;;;4994864;28;20289;-42
2023/09/20 06:54:29;;;;;;;;;;;16.80;99.90;;;;;;4994838;28;19921;-42
2023/09/20 06:56:57;;;;;;;;;;;16.80;99.90;;;;;;4994948;28;19929;-44
2023/09/20 06:59:22;;;;;;;;;;;16.80;99.90;;;;;;4994691;28;20024;-42
2023/09/20 07:01:50;;;;;;;;;;;16.80;99.90;;;;;;4994539;28;20375;-42
2023/09/20 07:04:16;;;;;;;;;;;16.90;99.90;;;;;;4994632;28;19928;-43
2023/09/20 07:06:42;;;;;;;;;;;16.90;99.90;;;;;;4994621;28;19922;-43
2023/09/20 07:09:08;;;;;;;;;;;16.90;99.90;;;;;;4994565;28;19967;-43
2023/09/20 07:11:34;;;;;;;;;;;16.90;99.90;;;;;;4994527;28;19923;-42
2023/09/20 07:14:05;;;;;;;;;;;16.90;99.90;;;;;;4994775;28;19929;-42
2023/09/20 07:16:33;;;;;;;;;;;16.90;99.90;;;;;;4994423;28;19922;-42
2023/09/20 07:19:04;;;;;;;;;;;16.90;99.90;;;;;;4976957;28;19928;-42
2023/09/20 07:21:29;;;;;;;;;;;16.90;99.90;;;;;;4994840;28;20016;-42
2023/09/20 07:23:58;;;;;;;;;;;16.90;99.90;;;;;;4994480;28;20012;-42
2023/09/20 07:26:26;;;;;;;;;;;16.90;99.90;;;;;;4994370;28;19922;-42
2023/09/20 07:28:52;;;;;;;;;;;16.90;99.90;;;;;;4994345;28;20375;-43
2023/09/20 07:31:21;;;;;;;;;;;17.00;99.90;;;;;;4994135;28;19922;-42
2023/09/20 07:33:48;;;;;;;;;;;17.00;99.90;;;;;;4994309;28;19922;-42
2023/09/20 07:36:15;;;;;;;;;;;17.00;99.90;;;;;;4994242;28;20370;-43
2023/09/20 07:38:40;;;;;;;;;;;17.00;99.90;;;;;;4994237;28;19944;-42
2023/09/20 07:41:13;;;;;;;;;;;17.10;99.90;;;;;;4994231;28;19921;-42
2023/09/20 07:43:39;;;;;;;;;;;17.10;99.90;;;;;;4994232;28;20012;-42
2023/09/20 07:46:07;;;;;;;;;;;17.20;99.90;;;;;;4994592;28;19928;-42
2023/09/20 07:48:33;;;;;;;;;;;17.30;99.90;;;;;;4995833;28;19929;-42
2023/09/20 07:50:59;;;;;;;;;;;17.30;99.90;;;;;;4997954;28;19921;-42
2023/09/20 07:53:25;;;;;;;;;;;17.40;99.90;;;;;;4998067;28;19922;-43
2023/09/20 07:55:57;;;;;;;;;;;17.40;99.90;;;;;;4998150;28;19921;-42
2023/09/20 07:58:23;;;;;;;;;;;17.40;99.90;;;;;;4997636;28;19925;-42
2023/09/20 08:00:51;;;;;;;;;;;17.50;99.90;;;;;;4997896;28;20363;-42
2023/09/20 08:03:18;;;;;;;;;;;17.50;99.90;;;;;;4997725;28;19922;-42
2023/09/20 08:05:44;;;;;;;;;;;17.50;99.90;;;;;;4980891;28;19928;-41
2023/09/20 08:08:10;;;;;;;;;;;17.50;99.90;;;;;;4980219;28;19921;-42
2023/09/20 08:10:36;;;;;;;;;;;17.50;99.90;;;;;;4997481;28;19921;-42
2023/09/20 08:13:03;;;;;;;;;;;17.50;99.90;;;;;;4997582;28;19972;-42
2023/09/20 08:15:32;;;;;;;;;;;17.50;99.90;;;;;;4997561;28;20012;-43
2023/09/20 08:20:42;;;;;;;;;;;17.60;99.90;;;;;;4997326;28;19928;-42
2023/09/20 09:01:31;;;;;;;;;;;18.00;99.90;;;;;;4996276;28;20351;-41
2023/09/20 09:03:59;;;;;;;;;;;18.00;99.90;;;;;;4996756;28;20053;-42
2023/09/20 09:06:25;;;;;;;;;;;18.00;99.90;;;;;;4996698;28;19929;-43
2023/09/20 09:08:51;;;;;;;;;;;18.00;99.90;;;;;;4979429;28;19922;-43
2023/09/20 09:11:17;;;;;;;;;;;18.00;99.90;;;;;;4996389;28;20282;-43
2023/09/20 09:13:43;;;;;;;;;;;18.00;99.90;;;;;;4996408;28;19926;-42
2023/09/20 09:16:08;;;;;;;;;;;18.00;99.90;;;;;;4996587;28;20379;-41
2023/09/20 09:18:34;;;;;;;;;;;18.00;99.90;;;;;;4996212;28;19983;-42
2023/09/20 09:21:00;;;;;;;;;;;18.00;99.90;;;;;;4996727;28;19928;-42
2023/09/20 09:23:35;;;;;;;;;;;17.90;99.90;;;;;;4996379;28;19964;-43
2023/09/20 09:26:01;;;;;;;;;;;17.90;99.90;;;;;;4996280;28;19922;-43
2023/09/20 09:28:29;;;;;;;;;;;17.90;99.90;;;;;;4996334;28;20330;-43
2023/09/20 09:30:54;;;;;;;;;;;17.90;99.90;;;;;;4996515;28;19929;-43
2023/09/20 09:33:20;;;;;;;;;;;17.90;99.90;;;;;;4996170;28;20274;-41
2023/09/20 09:35:47;;;;;;;;;;;17.90;99.90;;;;;;4996117;28;19922;-42
2023/09/20 09:38:18;;;;;;;;;;;17.90;99.90;;;;;;4995960;28;20378;-42
2023/09/20 09:40:52;;;;;;;;;;;17.90;99.90;;;;;;4995823;28;19922;-42
2023/09/20 09:43:17;;;;;;;;;;;17.90;99.90;;;;;;4996229;28;19921;-42
2023/09/20 09:45:46;;;;;;;;;;;17.90;99.90;;;;;;4995968;28;20381;-43
2023/09/20 09:48:13;;;;;;;;;;;18.00;99.90;;;;;;4978985;28;19921;-42
2023/09/20 09:50:40;;;;;;;;;;;17.90;99.90;;;;;;4995726;28;19921;-42
2023/09/20 09:53:08;;;;;;;;;;;18.00;99.90;;;;;;4995759;28;19929;-42
2023/09/20 09:55:34;;;;;;;;;;;18.00;99.90;;;;;;4996225;28;19921;-41
2023/09/20 09:58:04;;;;;;;;;;;18.00;99.90;;;;;;4995702;28;19922;-42
2023/09/20 10:00:30;;;;;;;;;;;18.10;99.90;;;;;;4995527;28;19929;-42
2023/09/20 10:03:02;;;;;;;;;;;18.10;99.90;;;;;;4995602;28;19921;-42
2023/09/20 10:05:27;;;;;;;;;;;18.10;99.90;;;;;;4995475;28;19929;-42
2023/09/20 10:07:58;;;;;;;;;;;18.10;99.90;;;;;;4995397;28;19926;-42
2023/09/20 10:10:26;;;;;;;;;;;18.10;99.90;;;;;;4995379;28;19976;-42
2023/09/20 10:12:51;;;;;;;;;;;18.10;99.90;;;;;;4995267;28;19922;-43
2023/09/20 10:15:18;;;;;;;;;;;18.20;99.90;;;;;;4995481;28;19922;-42
2023/09/20 10:17:51;;;;;;;;;;;18.30;99.90;;;;;;4978106;28;19980;-42
2023/09/20 10:20:18;;;;;;;;;;;18.30;99.90;;;;;;4995299;28;20004;-42
2023/09/20 10:22:47;;;;;;;;;;;18.40;99.90;;;;;;4995319;28;19933;-42
2023/09/20 10:25:35;;;;;;;;;;;18.40;99.90;;;;;;4995535;28;19922;-42
2023/09/20 10:28:08;;;;;;;;;;;18.40;99.90;;;;;;4995227;28;20390;-41
2023/09/20 10:30:34;;;;;;;;;;;18.40;99.90;;;;;;4995064;28;19929;-43
2023/09/20 10:33:03;;;;;;;;;;;18.40;99.90;;;;;;4995121;28;19922;-42
2023/09/20 10:35:30;;;;;;;;;;;18.50;99.90;;;;;;4995070;28;19921;-42
2023/09/20 10:38:04;;;;;;;;;;;18.50;99.90;;;;;;4994856;28;19922;-42
2023/09/20 10:40:59;;;;;;;;;;;18.50;99.90;;;;;;4995002;28;19921;-42
2023/09/20 10:43:34;;;;;;;;;;;18.50;99.90;;;;;;4993675;28;19921;-42
2023/09/20 10:46:03;;;;;;;;;;;18.50;99.90;;;;;;4995160;28;19972;-43
2023/09/20 10:48:29;;;;;;;;;;;18.50;99.90;;;;;;4994775;28;19922;-43
2023/09/20 10:50:57;;;;;;;;;;;18.60;99.90;;;;;;4977622;28;20008;-41
2023/09/20 10:53:41;;;;;;;;;;;18.50;99.90;;;;;;4994882;28;19941;-43
2023/09/20 10:56:08;;;;;;;;;;;18.50;99.90;;;;;;5010523;28;19922;-42
2023/09/20 10:58:33;;;;;;;;;;;18.50;99.90;;;;;;4994569;28;20453;-43
2023/09/20 11:00:59;;;;;;;;;;;18.50;99.90;;;;;;4995112;28;19969;-42
2023/09/20 11:03:24;;;;;;;;;;;18.50;99.90;;;;;;5009917;28;19980;-42
2023/09/20 11:05:50;;;;;;;;;;;18.50;99.90;;;;;;4977155;28;19921;-41
2023/09/20 11:08:15;;;;;;;;;;;18.50;99.90;;;;;;4994457;28;19953;-42
2023/09/20 11:10:43;;;;;;;;;;;18.60;99.90;;;;;;4977515;28;19922;-43
2023/09/20 11:13:11;;;;;;;;;;;18.60;99.90;;;;;;4994536;28;20330;-42
2023/09/20 11:15:43;;;;;;;;;;;18.60;99.90;;;;;;4994337;28;20294;-42
2023/09/20 11:18:09;;;;;;;;;;;18.60;99.90;;;;;;4994469;28;19965;-42
2023/09/20 11:20:35;;;;;;;;;;;18.60;99.90;;;;;;4994171;28;19922;-43
2023/09/20 11:23:04;;;;;;;;;;;18.60;99.90;;;;;;4995283;28;20297;-43
2023/09/20 11:25:30;;;;;;;;;;;18.60;99.90;;;;;;4998518;28;20363;-43
2023/09/20 11:27:56;;;;;;;;;;;18.60;99.90;;;;;;4998620;28;19930;-42
2023/09/20 11:30:29;;;;;;;;;;;18.60;99.90;;;;;;4998470;28;20044;-42
2023/09/20 11:32:55;;;;;;;;;;;18.60;99.90;;;;;;4981120;28;19921;-42
2023/09/20 11:35:39;;;;;;;;;;;18.50;99.90;;;;;;4998148;28;19944;-42
2023/09/20 11:38:06;;;;;;;;;;;18.60;99.90;;;;;;4998214;28;19929;-42
2023/09/20 11:40:32;;;;;;;;;;;18.60;99.90;;;;;;4998053;28;19944;-42
2023/09/20 11:42:57;;;;;;;;;;;18.60;99.90;;;;;;4998125;28;19930;-42
2023/09/20 11:45:24;;;;;;;;;;;18.60;99.90;;;;;;5013607;28;19929;-43
2023/09/20 11:47:50;;;;;;;;;;;18.60;99.90;;;;;;4998022;28;19928;-42
2023/09/20 11:50:16;;;;;;;;;;;18.60;99.90;;;;;;4998174;28;19922;-42
2023/09/20 11:52:45;;;;;;;;;;;18.60;99.90;;;;;;4998073;28;19938;-43
2023/09/20 11:55:12;;;;;;;;;;;18.60;99.90;;;;;;4998067;28;20020;-43
2023/09/20 11:57:38;;;;;;;;;;;18.60;99.90;;;;;;4997969;28;19921;-43
2023/09/20 12:00:05;;;;;;;;;;;18.60;99.90;;;;;;4997830;28;19926;-43
2023/09/20 12:02:31;;;;;;;;;;;18.70;99.90;;;;;;4980581;28;19972;-43
2023/09/20 12:04:56;;;;;;;;;;;18.70;99.90;;;;;;4997910;28;19926;-42
2023/09/20 12:07:22;;;;;;;;;;;18.80;99.90;;;;;;4998060;28;19921;-44
2023/09/20 12:09:47;;;;;;;;;;;18.80;99.90;;;;;;4980470;28;20430;-43
2023/09/20 12:12:13;;;;;;;;;;;18.80;99.90;;;;;;4997525;28;19933;-42
2023/09/20 12:14:39;;;;;;;;;;;18.80;99.90;;;;;;4997399;28;19921;-43
2023/09/20 12:17:06;;;;;;;;;;;18.80;99.90;;;;;;4997405;28;19922;-42
2023/09/20 12:19:32;;;;;;;;;;;18.80;99.90;;;;;;4997800;28;19976;-43
2023/09/20 12:21:57;;;;;;;;;;;18.80;99.90;;;;;;4997513;28;20259;-43
2023/09/20 12:24:24;;;;;;;;;;;18.80;99.90;;;;;;4997500;28;19925;-43
2023/09/20 12:26:51;;;;;;;;;;;18.80;99.90;;;;;;4997565;28;20076;-43
2023/09/20 12:29:17;;;;;;;;;;;18.80;99.90;;;;;;4997133;28;19928;-43
2023/09/20 12:31:42;;;;;;;;;;;18.80;99.90;;;;;;4996885;28;19922;-42
2023/09/20 12:34:08;;;;;;;;;;;18.80;99.90;;;;;;4996639;28;19976;-43
2023/09/20 12:36:34;;;;;;;;;;;18.90;99.90;;;;;;4997269;28;20391;-43
2023/09/20 12:39:01;;;;;;;;;;;18.90;99.90;;;;;;4997136;28;20286;-42
2023/09/20 12:41:27;;;;;;;;;;;18.90;99.90;;;;;;4997062;28;19929;-42
2023/09/20 12:43:52;;;;;;;;;;;18.90;99.90;;;;;;4996972;28;19926;-42
2023/09/20 12:46:18;;;;;;;;;;;18.90;99.90;;;;;;4996938;28;19922;-43
2023/09/20 12:48:44;;;;;;;;;;;18.90;99.90;;;;;;4997083;28;19922;-42
2023/09/20 12:51:12;;;;;;;;;;;18.90;99.90;;;;;;4979909;28;19929;-43
2023/09/20 12:53:38;;;;;;;;;;;18.90;99.90;;;;;;4996973;28;19921;-42
2023/09/20 12:56:05;;;;;;;;;;;18.90;99.90;;;;;;4996848;28;20079;-43
2023/09/20 12:58:30;;;;;;;;;;;19.00;99.90;;;;;;4996681;28;19922;-43
2023/09/20 13:00:56;;;;;;;;;;;19.00;99.90;;;;;;4996520;28;19943;-42
2023/09/20 13:03:24;;;;;;;;;;;19.00;99.90;;;;;;4996834;28;19929;-43
2023/09/20 13:05:49;;;;;;;;;;;19.00;99.90;;;;;;4996766;28;19922;-43
2023/09/20 13:08:16;;;;;;;;;;;19.10;99.90;;;;;;4996679;28;19921;-42
2023/09/20 13:10:43;;;;;;;;;;;19.10;99.90;;;;;;4996671;28;19928;-43
2023/09/20 13:13:09;;;;;;;;;;;19.20;99.90;;;;;;4996442;28;20297;-42
2023/09/20 13:15:35;;;;;;;;;;;19.20;99.90;;;;;;4996372;28;19980;-42
2023/09/20 13:18:01;;;;;;;;;;;19.30;99.90;;;;;;4996414;28;19926;-43
2023/09/20 13:20:27;;;;;;;;;;;19.30;99.90;;;;;;4992420;28;19922;-42
2023/09/20 13:22:54;;;;;;;;;;;19.30;99.90;;;;;;4996739;28;20280;-42
2023/09/20 13:25:21;;;;;;;;;;;19.40;99.90;;;;;;4996181;28;19921;-44
2023/09/20 13:27:49;;;;;;;;;;;19.40;99.90;;;;;;4996098;28;19922;-44
2023/09/20 13:30:17;;;;;;;;;;;19.40;99.90;;;;;;4996500;28;20046;-42
2023/09/20 13:32:43;;;;;;;;;;;19.40;99.90;;;;;;4996465;28;19977;-43
2023/09/20 13:35:10;;;;;;;;;;;19.40;99.90;;;;;;4996253;28;19929;-43
2023/09/20 13:37:40;;;;;;;;;;;19.40;99.90;;;;;;4996243;28;19922;-42
2023/09/20 13:40:12;;;;;;;;;;;19.50;99.90;;;;;;4996011;28;20291;-43
2023/09/20 13:42:42;;;;;;;;;;;19.50;99.90;;;;;;4995911;28;19921;-43
2023/09/20 13:45:11;;;;;;;;;;;19.60;99.90;;;;;;4995945;28;19945;-43
2023/09/20 13:47:39;;;;;;;;;;;19.60;99.90;;;;;;4995500;28;19921;-43
2023/09/20 13:50:07;;;;;;;;;;;19.80;99.90;;;;;;4978483;28;19922;-43
2023/09/20 13:52:33;;;;;;;;;;;19.90;99.90;;;;;;4995796;28;19972;-43
2023/09/20 13:54:58;;;;;;;;;;;20.00;99.90;;;;;;4995827;28;20343;-43
2023/09/20 13:57:24;;;;;;;;;;;20.00;99.90;;;;;;4995438;28;20330;-43
2023/09/20 13:59:51;;;;;;;;;;;20.10;99.90;;;;;;4995638;28;19928;-43
2023/09/20 14:02:17;;;;;;;;;;;20.10;99.90;;;;;;4995695;28;19922;-43
2023/09/20 14:04:43;;;;;;;;;;;20.10;99.90;;;;;;4995883;28;19976;-42
2023/09/20 14:07:15;;;;;;;;;;;20.20;99.90;;;;;;4995482;28;20310;-43
2023/09/20 14:09:41;;;;;;;;;;;20.20;99.90;;;;;;4995515;28;20302;-43
2023/09/20 14:12:08;;;;;;;;;;;20.10;99.90;;;;;;4995211;28;19922;-44
2023/09/20 14:14:33;;;;;;;;;;;20.20;99.90;;;;;;4978225;28;20389;-43
2023/09/20 14:16:59;;;;;;;;;;;20.20;99.90;;;;;;4995277;28;19922;-43
2023/09/20 14:19:24;;;;;;;;;;;20.20;99.90;;;;;;4994993;28;20363;-43
2023/09/20 14:21:50;;;;;;;;;;;20.10;99.90;;;;;;4994920;28;19975;-43
2023/09/20 14:24:16;;;;;;;;;;;20.10;99.90;;;;;;4995045;28;19922;-43
2023/09/20 14:26:41;;;;;;;;;;;20.10;99.90;;;;;;4994871;28;20378;-41
2023/09/20 14:29:10;;;;;;;;;;;20.10;99.90;;;;;;4995253;28;19968;-43
2023/09/20 14:31:37;;;;;;;;;;;20.10;99.90;;;;;;4977701;28;19936;-42
2023/09/20 14:34:03;;;;;;;;;;;20.20;99.90;;;;;;4977513;28;20013;-44
2023/09/20 14:36:29;;;;;;;;;;;20.20;99.90;;;;;;4995055;28;20417;-43
2023/09/20 14:38:56;;;;;;;;;;;20.20;99.90;;;;;;4994861;28;19921;-42
2023/09/20 14:41:22;;;;;;;;;;;20.20;99.90;;;;;;4977897;28;20355;-43
2023/09/20 14:43:48;;;;;;;;;;;20.20;99.90;;;;;;4994847;28;19929;-43
2023/09/20 14:46:13;;;;;;;;;;;20.20;99.90;;;;;;4977609;28;19926;-43
2023/09/20 14:48:39;;;;;;;;;;;20.30;99.90;;;;;;4994896;28;19922;-43
2023/09/20 14:51:07;;;;;;;;;;;20.20;99.90;;;;;;4977898;28;19922;-43
2023/09/20 14:53:32;;;;;;;;;;;20.30;99.90;;;;;;4994556;28;20008;-43
2023/09/20 14:55:58;;;;;;;;;;;20.30;99.90;;;;;;4994774;28;19983;-42
2023/09/20 14:58:29;;;;;;;;;;;20.20;99.90;;;;;;4993852;28;19921;-43